createdAt,value
2018-10-01T00:02:26.155Z,3.90
2018-10-01T00:04:54.868Z,3.67
2018-10-01T00:07:23.529Z,4.30
2018-10-01T00:09:52.203Z,3.80
2018-10-01T00:12:20.862Z,3.72
2018-10-01T00:14:49.527Z,4.55
2018-10-01T00:17:18.178Z,4.00
2018-10-01T00:19:52.410Z,4.37
2018-10-01T00:22:26.526Z,3.73
2018-10-01T00:24:55.201Z,3.77
2018-10-01T00:27:23.863Z,4.03
2018-10-01T00:29:52.541Z,3.77
2018-10-01T00:32:21.221Z,3.85
2018-10-01T00:34:49.912Z,3.45
2018-10-01T00:37:18.558Z,3.80
2018-10-01T00:42:22.159Z,3.45
2018-10-01T00:44:50.835Z,3.92
2018-10-01T00:47:19.523Z,3.55
2018-10-01T00:49:48.182Z,3.63
2018-10-01T00:52:16.839Z,4.60
2018-10-01T00:54:45.497Z,4.70
2018-10-01T00:57:14.143Z,4.12
2018-10-01T00:59:42.815Z,4.50
2018-10-01T01:02:11.476Z,4.05
2018-10-01T01:04:40.142Z,3.83
2018-10-01T01:07:15.128Z,4.15
2018-10-01T01:09:43.821Z,4.37
2018-10-01T01:12:12.489Z,4.58
2018-10-01T01:14:41.167Z,3.80
2018-10-01T01:17:09.812Z,3.83
2018-10-01T01:19:38.502Z,3.72
2018-10-01T01:22:07.154Z,3.60
2018-10-01T01:24:35.828Z,4.00
2018-10-01T01:27:04.484Z,3.97
2018-10-01T01:29:33.171Z,4.12
2018-10-01T01:32:01.825Z,3.70
2018-10-01T01:34:30.497Z,4.00
2018-10-01T01:36:59.148Z,3.90
2018-10-01T01:39:27.826Z,4.17
2018-10-01T01:41:56.504Z,3.92
2018-10-01T01:44:25.177Z,3.83
2018-10-01T01:46:53.829Z,3.62
2018-10-01T01:49:22.526Z,3.47
2018-10-01T01:51:51.172Z,3.75
2018-10-01T01:54:19.841Z,3.60
2018-10-01T01:56:48.505Z,3.40
2018-10-01T01:59:17.165Z,3.45
2018-10-01T02:01:45.844Z,4.08
2018-10-01T02:04:14.501Z,4.55
2018-10-01T02:06:43.166Z,5.08
2018-10-01T02:09:12.424Z,5.90
2018-10-01T02:11:41.230Z,5.75
2018-10-01T02:14:10.272Z,6.05
2018-10-01T02:16:39.008Z,5.90
2018-10-01T02:19:07.649Z,6.42
2018-10-01T02:21:36.305Z,6.00
2018-10-01T02:24:04.969Z,7.10
2018-10-01T02:26:33.643Z,6.85
2018-10-01T02:29:02.299Z,7.40
2018-10-01T02:31:30.963Z,6.35
2018-10-01T02:33:59.622Z,6.67
2018-10-01T02:36:28.283Z,6.10
2018-10-01T02:38:56.941Z,7.30
2018-10-01T02:41:25.616Z,6.45
2018-10-01T02:43:54.295Z,6.80
2018-10-01T02:46:22.962Z,6.80
2018-10-01T02:48:51.630Z,6.37
2018-10-01T02:51:20.308Z,6.10
2018-10-01T02:53:54.429Z,6.15
2018-10-01T02:56:23.101Z,5.85
2018-10-01T02:58:51.756Z,7.12
2018-10-01T03:01:20.438Z,6.62
2018-10-01T03:03:49.105Z,7.28
2018-10-01T03:06:17.765Z,7.10
2018-10-01T03:08:46.457Z,8.00
2018-10-01T03:11:15.143Z,8.58
2018-10-01T03:13:44.082Z,9.48
2018-10-01T03:16:12.788Z,10.30
2018-10-01T03:18:41.446Z,10.55
2018-10-01T03:21:10.151Z,9.50
2018-10-01T03:23:38.803Z,10.75
2018-10-01T03:26:07.690Z,10.63
2018-10-01T03:28:36.366Z,11.78
2018-10-01T03:31:05.062Z,11.85
2018-10-01T03:33:33.772Z,12.20
2018-10-01T03:36:02.449Z,12.28
2018-10-01T03:38:31.113Z,12.70
2018-10-01T03:40:59.818Z,12.80
2018-10-01T03:43:28.485Z,13.68
2018-10-01T03:45:57.175Z,13.00
2018-10-01T03:48:25.864Z,13.53
2018-10-01T03:50:54.510Z,13.23
2018-10-01T03:53:23.181Z,13.53
2018-10-01T03:55:51.877Z,12.77
2018-10-01T03:58:20.681Z,13.65
2018-10-01T04:00:49.356Z,12.23
2018-10-01T04:03:18.038Z,12.30
2018-10-01T04:05:46.710Z,12.83
2018-10-01T04:08:15.437Z,11.90
2018-10-01T04:10:44.127Z,12.53
2018-10-01T04:13:12.796Z,11.93
2018-10-01T04:15:41.482Z,11.55
2018-10-01T04:18:10.152Z,11.67
2018-10-01T04:20:38.831Z,11.90
2018-10-01T04:23:07.506Z,10.90
2018-10-01T04:25:36.284Z,11.50
2018-10-01T04:28:05.103Z,11.53
2018-10-01T04:30:33.713Z,11.93
2018-10-01T04:33:02.394Z,11.30
2018-10-01T04:35:31.064Z,11.12
2018-10-01T04:37:59.751Z,11.88
2018-10-01T04:40:28.410Z,11.77
2018-10-01T04:42:57.090Z,11.08
2018-10-01T04:45:25.749Z,10.87
2018-10-01T04:47:54.438Z,11.00
2018-10-01T04:50:23.097Z,11.55
2018-10-01T04:52:51.778Z,11.55
2018-10-01T04:55:20.444Z,10.10
2018-10-01T04:57:49.102Z,8.88
2018-10-01T05:00:17.799Z,10.25
2018-10-01T05:02:46.461Z,10.58
2018-10-01T05:05:15.121Z,10.30
2018-10-01T05:07:43.793Z,9.60
2018-10-01T05:10:12.448Z,10.03
2018-10-01T05:12:41.133Z,10.07
2018-10-01T05:15:09.805Z,9.58
2018-10-01T05:17:38.483Z,9.55
2018-10-01T05:20:07.128Z,9.85
2018-10-01T05:22:35.803Z,11.10
2018-10-01T05:25:04.830Z,9.78
2018-10-01T05:27:33.536Z,10.10
2018-10-01T05:30:02.244Z,9.75
2018-10-01T05:32:30.921Z,10.68
2018-10-01T05:34:59.586Z,10.38
2018-10-01T05:37:28.274Z,10.55
2018-10-01T05:39:56.942Z,11.15
2018-10-01T05:42:25.618Z,11.85
2018-10-01T05:44:54.331Z,9.68
2018-10-01T05:47:22.977Z,10.10
2018-10-01T05:49:51.640Z,8.80
2018-10-01T05:52:20.315Z,9.50
2018-10-01T05:54:48.982Z,9.93
2018-10-01T05:57:17.675Z,10.80
2018-10-01T05:59:46.345Z,11.50
2018-10-01T06:02:15.020Z,12.33
2018-10-01T06:04:43.719Z,10.23
2018-10-01T06:07:12.361Z,10.63
2018-10-01T06:09:41.050Z,10.60
2018-10-01T06:12:09.720Z,13.90
2018-10-01T06:14:38.421Z,14.07
2018-10-01T06:17:07.079Z,11.37
2018-10-01T06:19:35.728Z,11.67
2018-10-01T06:22:04.414Z,11.57
2018-10-01T06:24:33.078Z,10.90
2018-10-01T06:27:01.746Z,10.07
2018-10-01T06:29:30.607Z,10.37
2018-10-01T06:31:59.942Z,11.17
2018-10-01T06:34:28.608Z,10.47
2018-10-01T06:36:57.282Z,8.97
2018-10-01T06:39:26.009Z,8.17
2018-10-01T06:41:54.756Z,8.37
2018-10-01T06:44:23.354Z,9.20
2018-10-01T06:46:52.023Z,9.03
2018-10-01T06:49:20.677Z,7.63
2018-10-01T06:51:49.350Z,8.93
2018-10-01T06:54:18.041Z,9.23
2018-10-01T06:56:46.751Z,8.63
2018-10-01T06:59:15.405Z,8.90
2018-10-01T07:01:44.096Z,9.00
2018-10-01T07:04:12.862Z,8.83
2018-10-01T07:06:41.481Z,8.77
2018-10-01T07:09:11.005Z,9.00
2018-10-01T07:11:40.191Z,8.30
2018-10-01T07:14:08.794Z,8.97
2018-10-01T07:16:37.505Z,9.40
2018-10-01T07:19:06.524Z,8.90
2018-10-01T07:21:35.174Z,7.57
2018-10-01T07:24:03.961Z,7.00
2018-10-01T07:26:32.616Z,7.27
2018-10-01T07:29:01.278Z,7.17
2018-10-01T07:31:29.953Z,7.57
2018-10-01T07:33:58.693Z,8.87
2018-10-01T07:36:27.377Z,6.70
2018-10-01T07:38:56.168Z,6.80
2018-10-01T07:41:24.801Z,7.27
2018-10-01T07:43:53.470Z,7.33
2018-10-01T07:46:22.255Z,6.27
2018-10-01T07:48:50.958Z,6.20
2018-10-01T07:51:19.682Z,6.47
2018-10-01T07:53:48.336Z,5.30
2018-10-01T07:56:16.994Z,5.73
2018-10-01T07:58:45.658Z,5.47
2018-10-01T08:01:14.324Z,5.80
2018-10-01T08:03:42.980Z,6.73
2018-10-01T08:06:11.639Z,6.30
2018-10-01T08:08:40.396Z,6.47
2018-10-01T08:11:08.965Z,6.90
2018-10-01T08:13:37.621Z,7.13
2018-10-01T08:16:06.294Z,7.87
2018-10-01T08:18:34.961Z,6.60
2018-10-01T08:21:03.651Z,6.27
2018-10-01T08:23:32.466Z,7.00
2018-10-01T08:26:01.092Z,6.40
2018-10-01T08:28:29.744Z,6.87
2018-10-01T08:30:58.390Z,5.73
2018-10-01T08:33:27.084Z,5.90
2018-10-01T08:35:55.743Z,5.80
2018-10-01T08:38:24.494Z,5.73
2018-10-01T08:40:53.060Z,6.30
2018-10-01T08:43:21.734Z,6.37
2018-10-01T08:45:50.377Z,6.50
2018-10-01T08:48:19.840Z,6.47
2018-10-01T08:51:00.025Z,6.87
2018-10-01T08:53:34.564Z,6.63
2018-10-01T08:56:03.190Z,6.77
2018-10-01T08:58:31.830Z,6.97
2018-10-01T09:01:00.481Z,7.50
2018-10-01T09:03:29.201Z,7.57
2018-10-01T09:05:57.832Z,7.17
2018-10-01T09:08:26.550Z,7.10
2018-10-01T09:10:55.193Z,6.23
2018-10-01T09:13:23.833Z,6.17
2018-10-01T09:15:52.493Z,5.10
2018-10-01T09:18:21.168Z,4.43
2018-10-01T09:20:49.834Z,4.70
2018-10-01T09:23:18.529Z,4.30
2018-10-01T09:25:47.174Z,4.93
2018-10-01T09:28:15.843Z,5.63
2018-10-01T09:30:44.494Z,4.50
2018-10-01T09:33:13.146Z,5.03
2018-10-01T09:35:41.885Z,4.87
2018-10-01T09:38:10.616Z,4.93
2018-10-01T09:40:39.277Z,4.13
2018-10-01T09:43:07.874Z,3.87
2018-10-01T09:45:36.525Z,4.07
2018-10-01T09:48:05.235Z,3.80
2018-10-01T09:50:33.896Z,3.10
2018-10-01T09:53:02.545Z,3.43
2018-10-01T09:55:31.212Z,3.20
2018-10-01T09:57:59.907Z,3.97
2018-10-01T10:00:34.054Z,2.87
2018-10-01T10:03:02.713Z,2.27
2018-10-01T10:05:31.385Z,2.30
2018-10-01T10:08:00.108Z,2.13
2018-10-01T10:10:28.852Z,1.53
2018-10-01T10:12:57.485Z,1.87
2018-10-01T10:15:26.351Z,2.10
2018-10-01T10:17:55.088Z,1.37
2018-10-01T10:20:23.741Z,1.90
2018-10-01T10:22:52.436Z,1.30
2018-10-01T10:25:21.144Z,1.57
2018-10-01T10:27:49.887Z,1.53
2018-10-01T10:30:18.590Z,1.10
2018-10-01T10:32:47.258Z,1.50
2018-10-01T10:35:15.956Z,1.70
2018-10-01T10:37:44.635Z,1.30
2018-10-01T10:40:13.299Z,1.50
2018-10-01T10:42:41.964Z,1.57
2018-10-01T10:45:10.635Z,1.20
2018-10-01T10:47:39.311Z,1.37
2018-10-01T10:50:08.721Z,1.67
2018-10-01T10:52:37.365Z,1.90
2018-10-01T10:55:06.438Z,1.20
2018-10-01T10:57:35.172Z,1.50
2018-10-01T11:00:03.827Z,1.60
2018-10-01T11:02:32.515Z,1.60
2018-10-01T11:05:01.175Z,1.27
2018-10-01T11:07:29.829Z,1.60
2018-10-01T11:09:58.521Z,1.33
2018-10-01T11:12:27.218Z,1.60
2018-10-01T11:14:56.064Z,1.80
2018-10-01T11:17:24.664Z,1.80
2018-10-01T11:19:53.401Z,1.70
2018-10-01T11:22:22.014Z,1.60
2018-10-01T11:24:50.658Z,1.90
2018-10-01T11:27:19.444Z,2.27
2018-10-01T11:29:48.010Z,1.47
2018-10-01T11:32:16.668Z,1.83
2018-10-01T11:34:46.326Z,1.60
2018-10-01T11:37:14.993Z,1.93
2018-10-01T11:39:43.751Z,1.80
2018-10-01T11:42:12.342Z,3.10
2018-10-01T11:44:41.010Z,1.73
2018-10-01T11:47:09.705Z,1.60
2018-10-01T11:49:38.389Z,2.10
2018-10-01T11:52:07.218Z,1.47
2018-10-01T11:54:35.903Z,1.53
2018-10-01T11:57:04.629Z,1.50
2018-10-01T11:59:33.316Z,1.67
2018-10-01T12:02:01.956Z,1.77
2018-10-01T12:04:30.627Z,1.90
2018-10-01T12:06:59.302Z,2.20
2018-10-01T12:09:28.005Z,2.13
2018-10-01T12:11:56.654Z,1.83
2018-10-01T12:14:25.326Z,1.60
2018-10-01T12:16:53.986Z,1.23
2018-10-01T12:19:22.716Z,0.90
2018-10-01T12:21:51.449Z,0.80
2018-10-01T12:24:20.074Z,0.80
2018-10-01T12:26:48.817Z,0.83
2018-10-01T12:29:17.528Z,0.90
2018-10-01T12:31:46.158Z,0.80
2018-10-01T12:34:14.842Z,0.90
2018-10-01T12:36:43.509Z,1.00
2018-10-01T12:39:12.219Z,0.87
2018-10-01T12:41:40.866Z,1.37
2018-10-01T12:44:09.543Z,1.07
2018-10-01T12:46:38.199Z,1.00
2018-10-01T12:49:06.875Z,1.37
2018-10-01T12:51:35.580Z,1.30
2018-10-01T12:54:04.208Z,1.17
2018-10-01T12:56:32.969Z,0.90
2018-10-01T12:59:01.594Z,1.10
2018-10-01T13:01:30.276Z,1.27
2018-10-01T13:03:58.927Z,1.90
2018-10-01T13:06:27.617Z,2.03
2018-10-01T13:08:56.253Z,1.10
2018-10-01T13:11:24.956Z,1.50
2018-10-01T13:13:53.609Z,1.30
2018-10-01T13:16:22.277Z,2.60
2018-10-01T13:18:50.935Z,1.20
2018-10-01T13:21:19.590Z,1.00
2018-10-01T13:23:48.270Z,2.03
2018-10-01T13:26:16.937Z,1.03
2018-10-01T13:28:45.590Z,1.20
2018-10-01T13:31:14.262Z,1.10
2018-10-01T13:33:42.934Z,0.90
2018-10-01T13:36:11.686Z,1.40
2018-10-01T13:38:40.305Z,1.10
2018-10-01T13:41:09.158Z,1.10
2018-10-01T13:43:37.863Z,1.20
2018-10-01T13:46:06.724Z,1.27
2018-10-01T13:48:35.660Z,1.43
2018-10-01T13:51:04.277Z,1.40
2018-10-01T13:53:32.950Z,1.23
2018-10-01T13:56:01.625Z,1.17
2018-10-01T13:58:30.306Z,1.20
2018-10-01T14:00:59.007Z,1.10
2018-10-01T14:03:27.766Z,0.77
2018-10-01T14:05:56.427Z,0.80
2018-10-01T14:08:25.101Z,0.70
2018-10-01T14:10:53.753Z,0.70
2018-10-01T14:13:22.622Z,0.73
2018-10-01T14:15:51.246Z,0.70
2018-10-01T14:18:19.923Z,0.63
2018-10-01T14:20:48.595Z,3.00
2018-10-01T14:23:17.244Z,2.57
2018-10-01T14:25:45.940Z,3.30
2018-10-01T14:28:14.569Z,1.27
2018-10-01T14:30:43.233Z,1.60
2018-10-01T14:33:11.905Z,1.17
2018-10-01T14:35:40.570Z,1.00
2018-10-01T14:38:09.245Z,0.60
2018-10-01T14:40:37.922Z,0.83
2018-10-01T14:43:06.641Z,0.77
2018-10-01T14:45:35.242Z,0.90
2018-10-01T14:48:03.928Z,1.30
2018-10-01T14:50:32.585Z,0.70
2018-10-01T14:53:01.247Z,0.70
2018-10-01T14:55:29.930Z,0.80
2018-10-01T14:57:58.645Z,0.90
2018-10-01T15:00:27.478Z,0.80
2018-10-01T15:02:55.969Z,3.43
2018-10-01T15:05:24.634Z,6.60
2018-10-01T15:07:53.300Z,4.63
2018-10-01T15:10:21.952Z,3.30
2018-10-01T15:12:50.913Z,2.67
2018-10-01T15:15:19.569Z,3.10
2018-10-01T15:17:48.257Z,2.30
2018-10-01T15:20:16.932Z,2.27
2018-10-01T15:22:45.610Z,1.70
2018-10-01T15:25:14.275Z,1.20
2018-10-01T15:27:43.028Z,1.40
2018-10-01T15:30:11.769Z,1.20
2018-10-01T15:32:40.352Z,1.37
2018-10-01T15:35:09.093Z,1.20
2018-10-01T15:37:37.722Z,1.33
2018-10-01T15:40:06.580Z,1.10
2018-10-01T15:42:35.316Z,0.90
2018-10-01T15:45:03.990Z,1.10
2018-10-01T15:47:32.658Z,1.20
2018-10-01T15:50:05.239Z,1.40
2018-10-01T15:52:33.885Z,1.80
2018-10-01T15:55:02.602Z,1.57
2018-10-01T15:57:31.267Z,1.83
2018-10-01T15:59:59.979Z,1.60
2018-10-01T16:02:28.682Z,2.13
2018-10-01T16:04:57.341Z,1.67
2018-10-01T16:07:26.030Z,1.60
2018-10-01T16:09:54.673Z,2.53
2018-10-01T16:12:23.357Z,2.10
2018-10-01T16:14:52.024Z,1.40
2018-10-01T16:17:20.699Z,1.30
2018-10-01T16:19:49.452Z,1.20
2018-10-01T16:22:18.114Z,1.37
2018-10-01T16:24:46.769Z,1.42
2018-10-01T16:27:15.461Z,2.00
2018-10-01T16:29:44.149Z,2.17
2018-10-01T16:32:12.851Z,1.82
2018-10-01T16:34:41.501Z,1.45
2018-10-01T16:37:10.204Z,1.45
2018-10-01T16:39:38.877Z,2.20
2018-10-01T16:42:07.617Z,2.15
2018-10-01T16:44:36.232Z,1.90
2018-10-01T16:47:04.907Z,1.45
2018-10-01T16:49:33.562Z,1.80
2018-10-01T16:52:02.273Z,1.42
2018-10-01T16:54:30.902Z,1.47
2018-10-01T16:56:59.679Z,1.30
2018-10-01T16:59:28.347Z,0.80
2018-10-01T17:01:57.006Z,1.30
2018-10-01T17:04:25.670Z,0.75
2018-10-01T17:06:54.325Z,0.85
2018-10-01T17:09:22.972Z,1.00
2018-10-01T17:11:51.620Z,1.50
2018-10-01T17:14:20.302Z,1.10
2018-10-01T17:16:48.965Z,1.02
2018-10-01T17:19:17.689Z,0.90
2018-10-01T17:21:46.393Z,0.78
2018-10-01T17:24:15.711Z,0.70
2018-10-01T17:26:44.348Z,0.70
2018-10-01T17:29:13.018Z,0.70
2018-10-01T17:31:41.790Z,0.90
2018-10-01T17:34:10.422Z,0.88
2018-10-01T17:36:39.106Z,0.93
2018-10-01T17:39:09.015Z,0.70
2018-10-01T17:41:38.005Z,0.60
2018-10-01T17:44:06.795Z,0.80
2018-10-01T17:46:35.530Z,1.10
2018-10-01T17:49:04.183Z,0.88
2018-10-01T17:51:32.870Z,2.22
2018-10-01T17:54:01.541Z,1.70
2018-10-01T17:56:30.218Z,1.10
2018-10-01T17:58:58.881Z,1.30
2018-10-01T18:01:27.529Z,1.35
2018-10-01T18:03:56.181Z,1.20
2018-10-01T18:06:24.850Z,1.35
2018-10-01T18:08:53.514Z,1.82
2018-10-01T18:11:22.176Z,0.80
2018-10-01T18:13:50.837Z,1.05
2018-10-01T18:16:19.482Z,1.07
2018-10-01T18:18:48.198Z,1.20
2018-10-01T18:21:16.796Z,1.02
2018-10-01T18:23:45.480Z,1.00
2018-10-01T18:26:14.121Z,1.20
2018-10-01T18:28:42.774Z,1.45
2018-10-01T18:31:11.425Z,1.50
2018-10-01T18:33:40.090Z,1.35
2018-10-01T18:36:08.752Z,1.32
2018-10-01T18:38:37.400Z,1.32
2018-10-01T18:41:06.557Z,1.50
2018-10-01T18:43:35.256Z,2.08
2018-10-01T18:46:03.865Z,3.00
2018-10-01T18:48:32.617Z,2.40
2018-10-01T18:51:01.283Z,2.50
2018-10-01T18:53:29.950Z,1.92
2018-10-01T18:55:58.623Z,1.50
2018-10-01T18:58:27.290Z,1.40
2018-10-01T19:00:56.109Z,2.45
2018-10-01T19:03:24.812Z,1.62
2018-10-01T19:05:53.503Z,3.92
2018-10-01T19:08:22.189Z,1.57
2018-10-01T19:10:50.860Z,1.72
2018-10-01T19:13:19.532Z,1.70
2018-10-01T19:15:48.177Z,2.22
2018-10-01T19:18:16.896Z,2.00
2018-10-01T19:20:45.597Z,2.00
2018-10-01T19:23:14.623Z,2.10
2018-10-01T19:25:43.357Z,2.40
2018-10-01T19:28:11.992Z,2.00
2018-10-01T19:30:40.653Z,1.52
2018-10-01T19:33:09.324Z,1.90
2018-10-01T19:35:38.058Z,1.95
2018-10-01T19:38:06.681Z,2.10
2018-10-01T19:40:35.438Z,1.82
2018-10-01T19:43:04.120Z,1.50
2018-10-01T19:45:32.910Z,1.95
2018-10-01T19:48:01.573Z,1.30
2018-10-01T19:50:30.233Z,1.10
2018-10-01T19:52:58.975Z,0.80
2018-10-01T19:55:27.573Z,1.05
2018-10-01T19:57:56.223Z,1.60
2018-10-01T20:00:24.889Z,1.37
2018-10-01T20:02:53.615Z,1.65
2018-10-01T20:05:22.294Z,1.50
2018-10-01T20:07:50.891Z,1.62
2018-10-01T20:10:19.557Z,1.85
2018-10-01T20:12:48.253Z,1.67
2018-10-01T20:15:16.931Z,1.75
2018-10-01T20:17:46.065Z,1.47
2018-10-01T20:20:14.737Z,1.65
2018-10-01T20:22:43.387Z,1.75
2018-10-01T20:25:12.055Z,1.62
2018-10-01T20:27:40.747Z,1.90
2018-10-01T20:30:09.498Z,1.72
2018-10-01T20:32:38.051Z,1.50
2018-10-01T20:35:06.863Z,1.80
2018-10-01T20:37:35.399Z,1.82
2018-10-01T20:40:04.073Z,2.08
2018-10-01T20:42:32.733Z,1.70
2018-10-01T20:45:01.423Z,1.60
2018-10-01T20:47:30.081Z,1.60
2018-10-01T20:49:58.811Z,1.30
2018-10-01T20:52:27.486Z,1.12
2018-10-01T20:54:56.089Z,1.42
2018-10-01T20:57:24.765Z,1.60
2018-10-01T20:59:53.446Z,1.98
2018-10-01T21:02:22.173Z,2.10
2018-10-01T21:04:50.765Z,1.62
2018-10-01T21:07:19.432Z,1.70
2018-10-01T21:09:48.109Z,1.70
2018-10-01T21:12:17.345Z,1.50
2018-10-01T21:14:46.010Z,1.70
2018-10-01T21:17:14.672Z,1.37
2018-10-01T21:19:43.384Z,0.80
2018-10-01T21:22:12.066Z,1.00
2018-10-01T21:24:40.724Z,1.15
2018-10-01T21:27:09.393Z,1.20
2018-10-01T21:29:38.058Z,1.10
2018-10-01T21:32:06.754Z,0.93
2018-10-01T21:34:35.430Z,1.00
2018-10-01T21:37:04.114Z,1.15
2018-10-01T21:39:44.901Z,0.90
2018-10-01T21:42:13.589Z,1.17
2018-10-01T21:44:42.250Z,0.93
2018-10-01T21:47:10.904Z,1.17
2018-10-01T21:49:39.589Z,1.00
2018-10-01T21:52:08.270Z,1.17
2018-10-01T21:54:36.939Z,0.80
2018-10-01T21:57:05.596Z,1.15
2018-10-01T21:59:34.277Z,1.02
2018-10-01T22:02:03.007Z,1.12
2018-10-01T22:04:31.669Z,1.37
2018-10-01T22:07:00.393Z,1.50
2018-10-01T22:09:29.057Z,1.30
2018-10-01T22:11:57.701Z,1.40
2018-10-01T22:14:26.359Z,1.20
2018-10-01T22:16:55.005Z,1.67
2018-10-01T22:19:23.673Z,1.87
2018-10-01T22:21:52.354Z,1.55
2018-10-01T22:24:21.013Z,1.82
2018-10-01T22:26:49.954Z,1.30
2018-10-01T22:29:18.648Z,1.55
2018-10-01T22:31:47.325Z,1.55
2018-10-01T22:34:15.990Z,1.50
2018-10-01T22:36:44.642Z,1.27
2018-10-01T22:39:13.318Z,1.90
2018-10-01T22:41:41.981Z,1.20
2018-10-01T22:44:10.635Z,1.70
2018-10-01T22:46:39.325Z,1.70
2018-10-01T22:49:08.112Z,1.82
2018-10-01T22:51:36.810Z,1.50
2018-10-01T22:54:05.469Z,1.40
2018-10-01T22:56:34.132Z,1.42
2018-10-01T22:59:02.773Z,1.30
2018-10-01T23:01:31.420Z,1.30
2018-10-01T23:04:00.056Z,1.65
2018-10-01T23:06:28.720Z,1.30
2018-10-01T23:08:57.433Z,1.20
2018-10-01T23:11:26.048Z,1.40
2018-10-01T23:13:54.692Z,1.22
2018-10-01T23:16:23.324Z,1.50
2018-10-01T23:18:51.965Z,1.10
2018-10-01T23:21:20.624Z,1.50
2018-10-01T23:23:49.274Z,0.90
2018-10-01T23:26:17.949Z,1.15
2018-10-01T23:28:46.606Z,1.17
2018-10-01T23:31:15.249Z,1.52
2018-10-01T23:33:43.921Z,1.12
2018-10-01T23:36:12.579Z,1.30
2018-10-01T23:38:41.225Z,1.25
2018-10-01T23:41:09.874Z,1.40
2018-10-01T23:43:38.536Z,1.55
2018-10-01T23:46:07.489Z,1.47
2018-10-01T23:48:36.137Z,2.02
2018-10-01T23:51:04.820Z,1.30
2018-10-01T23:53:33.460Z,1.30
2018-10-01T23:56:02.112Z,1.35
2018-10-01T23:58:30.768Z,1.45
